Maryland AWOS List, Phone Numbers

USA |  
| Search AWOS

Rocky Mountain States: Montana | Wyoming | Colorado | New Mexico

Complete weather reports: Maryland

Legend: KFNL = METAR available Follow your local AWOS on AV Mobile = METAR available on AV Mobile
Station Maryland Location Frequency Phone
KAPGFAA ID APG, KAPG 062150Z 00000KT 2SM -RA BR BKN004 OVC008 11/10 AA2966 Follow KAPG on AV Mobile Phillips Army Air Field / Aberdeen
K61WICAO ID K61W Annapolis Coast Guard Station
KNAKICAO ID KNAK, KNAK 062154Z AUTO 00000KT 10SM -RA FEW018 BKN065 OVC080 12/09 A2966 RMK AO2 SLP044 T01170094 PNO Follow KNAK on AV Mobile ANNAPOLIS US NAVAL ACADEMY
KLWXICAO ID KLWX Baltimore / DC Nexrad
KDMHICAO ID KDMH, KDMH 062154Z AUTO 11/09 A2968 RMK AO1 SLP049 T01110089 Follow KDMH on AV Mobile BALTIMORE DOWNTOWN
KMTNFAA ID MTN, AWOS-3PT, KMTN 062150Z 00000KT 3SM RA OVC012 12/11 A2968 Follow KMTN on AV Mobile Baltimore / Martin 124.925 410-682-8848
KBWIFAA ID BWI, ASOS, KBWI 062217Z 35003KT 1 3/4SM -RA BR SCT017 OVC028 11/09 A2966 RMK AO2 P0000 T01060089 Follow KBWI on AV Mobile BALTIMORE-WASHINGTON INTERNATIONAL 410-691-1278
4MDFAA ID 4MD, Belfort PIER 7
KCGEFAA ID CGE, AWOS-3, KCGE 062216Z AUTO 23003KT BKN016 BKN022 OVC041 11/08 A2967 RMK AO1 Follow KCGE on AV Mobile CAMBRIDGE 120.675 410-228-7559
KADWFAA ID ADW, KADW 062208Z AUTO 36008KT 220V360 10SM -RA FEW009 BKN014 11/10 A2965 RMK AO2 CIG 014V022 BKN V OVC Follow KADW on AV Mobile Camp Springs / Andrews Air Force Base
W32FAA ID W32, Belfort WASHINGTON EXECUTIVE/HYDE FIELD
KCGSFAA ID CGS, AWOS-3, KCGS 062215Z AUTO 35003KT 10SM SCT014 SCT020 SCT035 10/08 A2967 RMK AO1 Follow KCGS on AV Mobile COLLEGE PARK 121.225 301-864-5497
K66WICAO ID K66W Cove Point Coast Guard Light Station
KCBEFAA ID CBE, AWOS-3, KCBE 062217Z AUTO 00000KT 10SM SCT008 SCT015 SCT060 11/11 A2979 RMK AO1 Follow KCBE on AV Mobile Cumberland, Greater Cumberland Regional Airport 128.625 304-738-0451
KESNFAA ID ESN, AWOS-3, KESN 062150Z 26005KT 7SM DZ BKN009 BKN025 BKN048 A2970 Follow KESN on AV Mobile Easton / Newman Field 124.475 410-822-2817
KFMEFAA ID FME, AWOS-3, KFME 062215Z AUTO 00000KT 7SM SCT008 BKN014 OVC046 11/09 A2969 RMK AO1 Follow KFME on AV Mobile Fort Meade / Tipton 123.925
KJWXICAO ID KJWX Fort Ritchie
KFDKFAA ID FDK, AWOS-3, KFDK 062147Z 36005KT 5SM RA SCT020 BKN027 OVC045 12/12 A2970 Follow KFDK on AV Mobile Frederick, Frederick Municipal Airport 124.875 301-600-1457
KGAIFAA ID GAI, AWOS-3, KGAI 062215Z AUTO 00000KT 7SM BKN013 BKN020 OVC033 11/08 A2971 RMK AO1 P0003 Follow KGAI on AV Mobile GAITHERSBURG 128.275 301-977-2971
KHGRFAA ID HGR, ASOS, KHGR 062153Z 35009KT 10SM -RA SCT027 BKN034 OVC046 12/09 A2969 RMK AO2 SLP063 P0000 T01170089 Follow KHGR on AV Mobile HAGERSTOWN REGIONAL AIRPORT 126.375 301-745-3497
K2W6FAA ID 2W6, AWOS-3, K2W6 062216Z AUTO 23008KT 10SM BKN010 BKN045 OVC060 11/08 A2969 RMK AO1 Follow K2W6 on AV Mobile LEONARDTOWN 119.575 301-373-6514
K2G4FAA ID 2G4, AWOS-3, K2G4 062215Z AUTO 36006KT 7SM SCT025 OVC030 06/05 A2977 RMK AO1 Follow K2G4 on AV Mobile OAKLAND 120.125 301-746-8443
KW30ICAO ID KW30 Ocean City
KN80ICAO ID KN80 Ocean City, Ocean City Municipal Airport
KOXBFAA ID OXB, ASOS, KOXB 062153Z AUTO 17005KT 6SM -RA BR FEW008 BKN017 OVC042 11/09 A2969 RMK AO2 RAB10 SLP053 P0001 T01060094 TSNO Follow KOXB on AV Mobile OCEAN CITY MUNICIPAL AIRPORT 119.025 410-213-1530
KNHKFAA ID NHK, KNHK 062152Z 23008KT 10SM -RA SCT012 BKN070 OVC200 11/09 A2968 RMK AO2 SLP050 P0000 T01110089 $ Follow KNHK on AV Mobile NAS PATUXENT RIVER MD
KSBYFAA ID SBY, ASOS, KSBY 062154Z 23006KT 10SM -RA OVC065 11/08 A2968 Follow KSBY on AV Mobile SALISBURY-WICOMICO CTY REG 118.325 410-341-0868
KNUIFAA ID NUI, KNUI 062153Z AUTO 25008KT 10SM SCT060 SCT070 OVC090 12/09 A2968 RMK AO2 RAE51 SLP050 P0000 T01170089 Follow KNUI on AV Mobile KNUI WEBSTER FIELD ANNEX
KW29FAA ID W29, AWOS-3, KW29 062215Z AUTO 27003KT 10SM -RA SCT008 BKN060 OVC070 11/10 A2966 RMK AO2 P0001 Follow KW29 on AV Mobile STEVENSVILLE 120.575 410-643-8795
K67WICAO ID K67W Stillpond Coast Guard Station
K65WICAO ID K65W Thomas Point Coast Guard Station
KDMWFAA ID DMW, AWOS-3, KDMW 062215Z AUTO 00000KT 4SM RA SCT007 BKN014 OVC019 11/08 A2966 RMK AO2 P0003 Follow KDMW on AV Mobile WESTMINSTER 121.25 410-876-1281

Click on the AV Mobile icon AV Mobile icon by any station to follow that AWOS feed on AirportView.net Mobile.

Garmin Weather Avemco Insurance Company